sensor_id;sensor_type;location;lat;lon;timestamp;temperature;humidity
38784;DHT22;24531;45.502;12.238;2022-08-24T00:00:31;27.10;89.20
38784;DHT22;24531;45.502;12.238;2022-08-24T00:02:59;27.10;88.80
38784;DHT22;24531;45.502;12.238;2022-08-24T00:05:24;27.10;88.90
38784;DHT22;24531;45.502;12.238;2022-08-24T00:07:50;27.10;88.80
38784;DHT22;24531;45.502;12.238;2022-08-24T00:10:16;27.10;88.80
38784;DHT22;24531;45.502;12.238;2022-08-24T00:12:42;27.10;88.80
38784;DHT22;24531;45.502;12.238;2022-08-24T00:15:08;27.10;88.80
38784;DHT22;24531;45.502;12.238;2022-08-24T00:17:34;27.00;88.70
38784;DHT22;24531;45.502;12.238;2022-08-24T00:19:59;27.00;88.80
38784;DHT22;24531;45.502;12.238;2022-08-24T00:22:25;27.00;88.90
38784;DHT22;24531;45.502;12.238;2022-08-24T00:24:52;26.90;88.90
38784;DHT22;24531;45.502;12.238;2022-08-24T00:27:18;26.90;89.00
38784;DHT22;24531;45.502;12.238;2022-08-24T00:29:43;26.90;89.80
38784;DHT22;24531;45.502;12.238;2022-08-24T00:32:09;26.90;89.00
38784;DHT22;24531;45.502;12.238;2022-08-24T00:34:35;26.90;89.10
38784;DHT22;24531;45.502;12.238;2022-08-24T00:37:01;26.80;90.00
38784;DHT22;24531;45.502;12.238;2022-08-24T00:39:26;26.80;89.30
38784;DHT22;24531;45.502;12.238;2022-08-24T00:41:52;26.80;89.50
38784;DHT22;24531;45.502;12.238;2022-08-24T00:44:18;26.70;89.50
38784;DHT22;24531;45.502;12.238;2022-08-24T00:49:12;26.70;89.70
38784;DHT22;24531;45.502;12.238;2022-08-24T00:51:45;26.70;89.70
38784;DHT22;24531;45.502;12.238;2022-08-24T00:54:12;26.70;90.00
38784;DHT22;24531;45.502;12.238;2022-08-24T00:56:50;26.60;89.90
38784;DHT22;24531;45.502;12.238;2022-08-24T00:59:17;26.60;90.00
38784;DHT22;24531;45.502;12.238;2022-08-24T01:01:44;26.50;90.00
38784;DHT22;24531;45.502;12.238;2022-08-24T01:04:10;26.50;90.00
38784;DHT22;24531;45.502;12.238;2022-08-24T01:06:40;26.40;90.10
38784;DHT22;24531;45.502;12.238;2022-08-24T01:09:05;26.50;90.10
38784;DHT22;24531;45.502;12.238;2022-08-24T01:11:31;26.40;90.20
38784;DHT22;24531;45.502;12.238;2022-08-24T01:13:57;26.50;90.10
38784;DHT22;24531;45.502;12.238;2022-08-24T01:16:24;26.50;90.10
38784;DHT22;24531;45.502;12.238;2022-08-24T01:19:21;26.50;90.20
38784;DHT22;24531;45.502;12.238;2022-08-24T01:24:46;26.40;90.20
38784;DHT22;24531;45.502;12.238;2022-08-24T01:27:11;26.30;90.20
38784;DHT22;24531;45.502;12.238;2022-08-24T01:29:39;26.30;90.30
38784;DHT22;24531;45.502;12.238;2022-08-24T01:32:05;26.30;90.40
38784;DHT22;24531;45.502;12.238;2022-08-24T01:34:31;26.30;90.40
38784;DHT22;24531;45.502;12.238;2022-08-24T01:36:57;26.30;90.40
38784;DHT22;24531;45.502;12.238;2022-08-24T01:39:31;26.30;90.40
38784;DHT22;24531;45.502;12.238;2022-08-24T01:41:58;26.30;90.40
38784;DHT22;24531;45.502;12.238;2022-08-24T01:44:24;26.20;90.40
38784;DHT22;24531;45.502;12.238;2022-08-24T01:46:51;26.20;90.50
38784;DHT22;24531;45.502;12.238;2022-08-24T01:49:18;26.20;90.60
38784;DHT22;24531;45.502;12.238;2022-08-24T01:51:44;26.20;90.70
38784;DHT22;24531;45.502;12.238;2022-08-24T01:54:11;26.20;90.70
38784;DHT22;24531;45.502;12.238;2022-08-24T01:56:36;26.20;90.70
38784;DHT22;24531;45.502;12.238;2022-08-24T01:59:02;26.10;90.70
38784;DHT22;24531;45.502;12.238;2022-08-24T02:01:29;26.10;90.80
38784;DHT22;24531;45.502;12.238;2022-08-24T02:03:56;26.10;90.80
38784;DHT22;24531;45.502;12.238;2022-08-24T02:06:22;26.10;90.80
38784;DHT22;24531;45.502;12.238;2022-08-24T02:08:48;26.00;90.80
38784;DHT22;24531;45.502;12.238;2022-08-24T02:11:14;26.00;90.80
38784;DHT22;24531;45.502;12.238;2022-08-24T02:13:39;26.00;90.80
38784;DHT22;24531;45.502;12.238;2022-08-24T02:16:06;26.00;90.90
38784;DHT22;24531;45.502;12.238;2022-08-24T02:18:34;25.90;90.80
38784;DHT22;24531;45.502;12.238;2022-08-24T02:21:00;25.90;90.90
38784;DHT22;24531;45.502;12.238;2022-08-24T02:23:26;25.90;90.90
38784;DHT22;24531;45.502;12.238;2022-08-24T02:25:53;25.90;90.90
38784;DHT22;24531;45.502;12.238;2022-08-24T02:28:19;25.90;91.10
38784;DHT22;24531;45.502;12.238;2022-08-24T02:30:44;25.90;91.00
38784;DHT22;24531;45.502;12.238;2022-08-24T02:33:10;25.90;91.00
38784;DHT22;24531;45.502;12.238;2022-08-24T02:35:36;25.90;91.00
38784;DHT22;24531;45.502;12.238;2022-08-24T02:38:01;25.90;91.00
38784;DHT22;24531;45.502;12.238;2022-08-24T02:40:27;25.90;91.10
38784;DHT22;24531;45.502;12.238;2022-08-24T02:42:52;25.80;91.10
38784;DHT22;24531;45.502;12.238;2022-08-24T02:45:18;25.80;91.10
38784;DHT22;24531;45.502;12.238;2022-08-24T02:47:44;25.80;91.10
38784;DHT22;24531;45.502;12.238;2022-08-24T02:50:11;25.80;91.20
38784;DHT22;24531;45.502;12.238;2022-08-24T02:52:38;25.80;91.30
38784;DHT22;24531;45.502;12.238;2022-08-24T02:55:04;25.80;91.30
38784;DHT22;24531;45.502;12.238;2022-08-24T02:57:30;25.80;91.20
38784;DHT22;24531;45.502;12.238;2022-08-24T02:59:56;25.80;91.20
38784;DHT22;24531;45.502;12.238;2022-08-24T03:02:21;25.80;91.20
38784;DHT22;24531;45.502;12.238;2022-08-24T03:04:47;25.80;91.30
38784;DHT22;24531;45.502;12.238;2022-08-24T03:07:12;25.70;91.30
38784;DHT22;24531;45.502;12.238;2022-08-24T03:09:38;25.70;91.30
38784;DHT22;24531;45.502;12.238;2022-08-24T03:12:03;25.70;91.40
38784;DHT22;24531;45.502;12.238;2022-08-24T03:14:29;25.70;91.40
38784;DHT22;24531;45.502;12.238;2022-08-24T03:16:54;25.70;91.40
38784;DHT22;24531;45.502;12.238;2022-08-24T03:19:20;25.70;91.40
38784;DHT22;24531;45.502;12.238;2022-08-24T03:21:46;25.70;91.50
38784;DHT22;24531;45.502;12.238;2022-08-24T03:24:12;25.70;91.50
38784;DHT22;24531;45.502;12.238;2022-08-24T03:26:38;25.70;91.50
38784;DHT22;24531;45.502;12.238;2022-08-24T03:29:03;25.70;91.50
38784;DHT22;24531;45.502;12.238;2022-08-24T03:31:29;25.70;91.50
38784;DHT22;24531;45.502;12.238;2022-08-24T03:33:54;25.70;91.60
38784;DHT22;24531;45.502;12.238;2022-08-24T03:36:20;25.70;91.60
38784;DHT22;24531;45.502;12.238;2022-08-24T03:38:45;25.70;91.60
38784;DHT22;24531;45.502;12.238;2022-08-24T03:41:11;25.60;91.60
38784;DHT22;24531;45.502;12.238;2022-08-24T03:43:37;25.60;91.60
38784;DHT22;24531;45.502;12.238;2022-08-24T03:46:17;25.60;91.60
38784;DHT22;24531;45.502;12.238;2022-08-24T03:48:43;25.60;91.70
38784;DHT22;24531;45.502;12.238;2022-08-24T03:51:18;25.60;91.70
38784;DHT22;24531;45.502;12.238;2022-08-24T03:53:44;25.60;91.70
38784;DHT22;24531;45.502;12.238;2022-08-24T03:56:10;25.60;91.70
38784;DHT22;24531;45.502;12.238;2022-08-24T03:58:36;25.60;91.80
38784;DHT22;24531;45.502;12.238;2022-08-24T04:01:02;25.50;91.70
38784;DHT22;24531;45.502;12.238;2022-08-24T04:03:28;25.50;91.80
38784;DHT22;24531;45.502;12.238;2022-08-24T04:05:53;25.50;91.80
38784;DHT22;24531;45.502;12.238;2022-08-24T04:08:19;25.40;91.80
38784;DHT22;24531;45.502;12.238;2022-08-24T04:10:45;25.40;91.90
38784;DHT22;24531;45.502;12.238;2022-08-24T04:13:11;25.40;91.80
38784;DHT22;24531;45.502;12.238;2022-08-24T04:15:40;25.40;91.90
38784;DHT22;24531;45.502;12.238;2022-08-24T04:18:05;25.40;91.90
38784;DHT22;24531;45.502;12.238;2022-08-24T04:20:36;25.40;91.90
38784;DHT22;24531;45.502;12.238;2022-08-24T04:23:02;25.40;91.90
38784;DHT22;24531;45.502;12.238;2022-08-24T04:25:27;25.40;91.90
38784;DHT22;24531;45.502;12.238;2022-08-24T04:27:53;25.30;91.90
38784;DHT22;24531;45.502;12.238;2022-08-24T04:30:18;25.30;92.00
38784;DHT22;24531;45.502;12.238;2022-08-24T04:32:44;25.20;92.00
38784;DHT22;24531;45.502;12.238;2022-08-24T04:35:09;25.20;92.00
38784;DHT22;24531;45.502;12.238;2022-08-24T04:37:35;25.20;92.10
38784;DHT22;24531;45.502;12.238;2022-08-24T04:40:01;25.20;92.10
38784;DHT22;24531;45.502;12.238;2022-08-24T04:42:27;25.20;92.20
38784;DHT22;24531;45.502;12.238;2022-08-24T04:44:53;25.20;92.20
38784;DHT22;24531;45.502;12.238;2022-08-24T04:47:19;25.20;92.20
38784;DHT22;24531;45.502;12.238;2022-08-24T04:49:44;25.10;92.20
38784;DHT22;24531;45.502;12.238;2022-08-24T04:52:09;25.10;92.30
38784;DHT22;24531;45.502;12.238;2022-08-24T04:54:35;25.10;92.30
38784;DHT22;24531;45.502;12.238;2022-08-24T04:57:00;25.10;92.30
38784;DHT22;24531;45.502;12.238;2022-08-24T04:59:26;25.10;92.40
38784;DHT22;24531;45.502;12.238;2022-08-24T05:01:51;25.10;92.40
38784;DHT22;24531;45.502;12.238;2022-08-24T05:04:17;25.10;92.40
38784;DHT22;24531;45.502;12.238;2022-08-24T05:06:43;25.10;92.40
38784;DHT22;24531;45.502;12.238;2022-08-24T05:09:08;25.10;92.40
38784;DHT22;24531;45.502;12.238;2022-08-24T05:11:34;25.10;92.40
38784;DHT22;24531;45.502;12.238;2022-08-24T05:14:01;25.10;92.40
38784;DHT22;24531;45.502;12.238;2022-08-24T05:16:27;25.20;92.50
38784;DHT22;24531;45.502;12.238;2022-08-24T05:18:53;25.20;92.50
38784;DHT22;24531;45.502;12.238;2022-08-24T05:21:20;25.20;92.40
38784;DHT22;24531;45.502;12.238;2022-08-24T05:23:46;25.30;92.40
38784;DHT22;24531;45.502;12.238;2022-08-24T05:28:40;25.30;92.40
38784;DHT22;24531;45.502;12.238;2022-08-24T05:31:07;25.40;92.40
38784;DHT22;24531;45.502;12.238;2022-08-24T05:33:33;25.40;92.40
38784;DHT22;24531;45.502;12.238;2022-08-24T05:35:58;25.40;92.50
38784;DHT22;24531;45.502;12.238;2022-08-24T05:38:24;25.40;92.50
38784;DHT22;24531;45.502;12.238;2022-08-24T05:40:49;25.50;92.50
38784;DHT22;24531;45.502;12.238;2022-08-24T05:43:15;25.50;92.50
38784;DHT22;24531;45.502;12.238;2022-08-24T05:45:40;25.60;92.60
38784;DHT22;24531;45.502;12.238;2022-08-24T05:48:08;25.60;92.50
38784;DHT22;24531;45.502;12.238;2022-08-24T05:50:33;25.60;92.60
38784;DHT22;24531;45.502;12.238;2022-08-24T05:52:59;25.70;92.60
38784;DHT22;24531;45.502;12.238;2022-08-24T05:55:24;25.80;92.50
38784;DHT22;24531;45.502;12.238;2022-08-24T05:57:50;25.80;92.50
38784;DHT22;24531;45.502;12.238;2022-08-24T06:00:15;25.90;92.60
38784;DHT22;24531;45.502;12.238;2022-08-24T06:02:41;25.90;92.60
38784;DHT22;24531;45.502;12.238;2022-08-24T06:05:08;26.00;92.60
38784;DHT22;24531;45.502;12.238;2022-08-24T06:07:33;26.00;92.50
38784;DHT22;24531;45.502;12.238;2022-08-24T06:09:59;26.10;92.60
38784;DHT22;24531;45.502;12.238;2022-08-24T06:12:24;26.20;92.60
38784;DHT22;24531;45.502;12.238;2022-08-24T06:14:52;26.20;92.50
38784;DHT22;24531;45.502;12.238;2022-08-24T06:17:18;26.30;92.50
38784;DHT22;24531;45.502;12.238;2022-08-24T06:19:44;26.30;92.50
38784;DHT22;24531;45.502;12.238;2022-08-24T06:22:09;26.50;93.10
38784;DHT22;24531;45.502;12.238;2022-08-24T06:24:35;26.70;92.80
38784;DHT22;24531;45.502;12.238;2022-08-24T06:27:19;27.00;92.90
38784;DHT22;24531;45.502;12.238;2022-08-24T06:29:45;27.00;92.90
38784;DHT22;24531;45.502;12.238;2022-08-24T06:32:11;27.00;92.80
38784;DHT22;24531;45.502;12.238;2022-08-24T06:34:36;27.00;92.80
38784;DHT22;24531;45.502;12.238;2022-08-24T06:37:04;27.00;92.70
38784;DHT22;24531;45.502;12.238;2022-08-24T06:39:29;27.10;92.80
38784;DHT22;24531;45.502;12.238;2022-08-24T06:41:55;27.20;92.60
38784;DHT22;24531;45.502;12.238;2022-08-24T06:44:20;27.20;92.60
38784;DHT22;24531;45.502;12.238;2022-08-24T06:46:46;27.30;92.50
38784;DHT22;24531;45.502;12.238;2022-08-24T06:49:11;27.40;92.50
38784;DHT22;24531;45.502;12.238;2022-08-24T06:51:37;27.40;92.40
38784;DHT22;24531;45.502;12.238;2022-08-24T06:54:03;27.60;92.40
38784;DHT22;24531;45.502;12.238;2022-08-24T06:56:28;27.80;92.30
38784;DHT22;24531;45.502;12.238;2022-08-24T06:58:54;27.90;92.20
38784;DHT22;24531;45.502;12.238;2022-08-24T07:01:21;28.00;92.10
38784;DHT22;24531;45.502;12.238;2022-08-24T07:03:47;28.10;92.10
38784;DHT22;24531;45.502;12.238;2022-08-24T07:06:12;28.30;92.00
38784;DHT22;24531;45.502;12.238;2022-08-24T07:08:38;28.40;91.90
38784;DHT22;24531;45.502;12.238;2022-08-24T07:11:06;28.60;91.80
38784;DHT22;24531;45.502;12.238;2022-08-24T07:13:32;28.60;91.70
38784;DHT22;24531;45.502;12.238;2022-08-24T07:15:58;28.70;91.60
38784;DHT22;24531;45.502;12.238;2022-08-24T07:18:25;28.80;91.60
38784;DHT22;24531;45.502;12.238;2022-08-24T07:20:50;28.90;91.40
38784;DHT22;24531;45.502;12.238;2022-08-24T07:23:16;29.10;91.40
38784;DHT22;24531;45.502;12.238;2022-08-24T07:25:42;29.30;91.40
38784;DHT22;24531;45.502;12.238;2022-08-24T07:28:08;29.50;91.30
38784;DHT22;24531;45.502;12.238;2022-08-24T07:30:35;29.60;91.10
38784;DHT22;24531;45.502;12.238;2022-08-24T07:33:00;29.60;90.90
38784;DHT22;24531;45.502;12.238;2022-08-24T07:35:27;29.70;90.80
38784;DHT22;24531;45.502;12.238;2022-08-24T07:37:53;29.80;90.80
38784;DHT22;24531;45.502;12.238;2022-08-24T07:40:20;29.80;90.70
38784;DHT22;24531;45.502;12.238;2022-08-24T07:42:48;30.00;90.80
38784;DHT22;24531;45.502;12.238;2022-08-24T07:45:14;30.30;90.70
38784;DHT22;24531;45.502;12.238;2022-08-24T07:47:40;30.40;90.70
38784;DHT22;24531;45.502;12.238;2022-08-24T07:50:06;30.60;90.60
38784;DHT22;24531;45.502;12.238;2022-08-24T07:52:32;30.70;90.70
38784;DHT22;24531;45.502;12.238;2022-08-24T07:54:58;30.90;90.70
38784;DHT22;24531;45.502;12.238;2022-08-24T07:57:23;31.10;90.60
38784;DHT22;24531;45.502;12.238;2022-08-24T07:59:49;31.40;90.20
38784;DHT22;24531;45.502;12.238;2022-08-24T08:02:20;31.60;90.20
38784;DHT22;24531;45.502;12.238;2022-08-24T08:04:46;31.80;90.10
38784;DHT22;24531;45.502;12.238;2022-08-24T08:07:11;32.20;90.00
38784;DHT22;24531;45.502;12.238;2022-08-24T08:09:38;32.50;89.70
38784;DHT22;24531;45.502;12.238;2022-08-24T08:12:04;32.90;89.20
38784;DHT22;24531;45.502;12.238;2022-08-24T08:14:30;33.50;88.70
38784;DHT22;24531;45.502;12.238;2022-08-24T08:16:56;34.00;88.20
38784;DHT22;24531;45.502;12.238;2022-08-24T08:19:21;34.50;87.80
38784;DHT22;24531;45.502;12.238;2022-08-24T08:21:48;35.00;86.40
38784;DHT22;24531;45.502;12.238;2022-08-24T08:24:32;35.60;86.40
38784;DHT22;24531;45.502;12.238;2022-08-24T08:26:58;36.20;85.40
38784;DHT22;24531;45.502;12.238;2022-08-24T08:29:23;36.60;84.70
38784;DHT22;24531;45.502;12.238;2022-08-24T08:31:50;37.10;83.90
38784;DHT22;24531;45.502;12.238;2022-08-24T08:34:16;37.40;82.40
38784;DHT22;24531;45.502;12.238;2022-08-24T08:36:42;37.70;82.00
38784;DHT22;24531;45.502;12.238;2022-08-24T08:39:08;37.90;80.60
38784;DHT22;24531;45.502;12.238;2022-08-24T08:44:04;38.20;78.10
38784;DHT22;24531;45.502;12.238;2022-08-24T08:49:23;38.60;77.40
38784;DHT22;24531;45.502;12.238;2022-08-24T08:59:50;40.50;76.50
38784;DHT22;24531;45.502;12.238;2022-08-24T09:18:06;41.90;72.80
38784;DHT22;24531;45.502;12.238;2022-08-24T09:25:50;42.30;70.40
38784;DHT22;24531;45.502;12.238;2022-08-24T09:28:32;42.40;70.00
38784;DHT22;24531;45.502;12.238;2022-08-24T09:33:34;42.40;66.90
38784;DHT22;24531;45.502;12.238;2022-08-24T09:46:26;42.80;64.90
38784;DHT22;24531;45.502;12.238;2022-08-24T09:49:00;43.00;64.70
38784;DHT22;24531;45.502;12.238;2022-08-24T09:54:22;44.10;64.60
38784;DHT22;24531;45.502;12.238;2022-08-24T10:09:47;43.90;61.60
38784;DHT22;24531;45.502;12.238;2022-08-24T10:12:21;43.80;61.70
38784;DHT22;24531;45.502;12.238;2022-08-24T10:17:30;43.40;63.20
38784;DHT22;24531;45.502;12.238;2022-08-24T10:22:46;41.40;64.70
38784;DHT22;24531;45.502;12.238;2022-08-24T10:27:49;39.70;67.70
38784;DHT22;24531;45.502;12.238;2022-08-24T10:30:38;39.10;68.30
38784;DHT22;24531;45.502;12.238;2022-08-24T10:45:26;36.90;66.10
38784;DHT22;24531;45.502;12.238;2022-08-24T10:47:21;36.60;65.60
38784;DHT22;24531;45.502;12.238;2022-08-24T10:54:38;36.00;65.80
38784;DHT22;24531;45.502;12.238;2022-08-24T10:59:52;35.80;64.60
38784;DHT22;24531;45.502;12.238;2022-08-24T11:02:32;35.70;64.70
38784;DHT22;24531;45.502;12.238;2022-08-24T11:04:59;35.70;64.60
38784;DHT22;24531;45.502;12.238;2022-08-24T11:07:25;35.70;64.70
38784;DHT22;24531;45.502;12.238;2022-08-24T11:09:53;35.70;64.90
38784;DHT22;24531;45.502;12.238;2022-08-24T11:14:49;35.50;63.70
38784;DHT22;24531;45.502;12.238;2022-08-24T11:17:15;35.40;64.50
38784;DHT22;24531;45.502;12.238;2022-08-24T11:19:41;35.40;65.20
38784;DHT22;24531;45.502;12.238;2022-08-24T11:22:27;35.40;65.80
38784;DHT22;24531;45.502;12.238;2022-08-24T11:24:54;35.40;65.30
38784;DHT22;24531;45.502;12.238;2022-08-24T11:27:42;35.40;65.30
38784;DHT22;24531;45.502;12.238;2022-08-24T11:37:36;35.20;65.30
38784;DHT22;24531;45.502;12.238;2022-08-24T11:40:03;35.10;64.00
38784;DHT22;24531;45.502;12.238;2022-08-24T11:42:42;35.10;63.90
38784;DHT22;24531;45.502;12.238;2022-08-24T11:45:13;35.00;62.80
38784;DHT22;24531;45.502;12.238;2022-08-24T11:52:50;35.20;64.40
38784;DHT22;24531;45.502;12.238;2022-08-24T11:58:02;35.30;64.50
38784;DHT22;24531;45.502;12.238;2022-08-24T12:00:35;35.30;63.70
38784;DHT22;24531;45.502;12.238;2022-08-24T12:03:21;35.30;63.20
38784;DHT22;24531;45.502;12.238;2022-08-24T12:06:02;35.30;63.70
38784;DHT22;24531;45.502;12.238;2022-08-24T12:08:32;35.30;63.00
38784;DHT22;24531;45.502;12.238;2022-08-24T12:11:14;35.30;63.10
38784;DHT22;24531;45.502;12.238;2022-08-24T12:13:57;35.40;62.80
38784;DHT22;24531;45.502;12.238;2022-08-24T12:16:28;35.30;62.30
38784;DHT22;24531;45.502;12.238;2022-08-24T12:21:23;35.10;62.30
38784;DHT22;24531;45.502;12.238;2022-08-24T12:23:59;35.10;61.70
38784;DHT22;24531;45.502;12.238;2022-08-24T12:26:28;35.10;62.10
38784;DHT22;24531;45.502;12.238;2022-08-24T12:28:58;35.00;61.40
38784;DHT22;24531;45.502;12.238;2022-08-24T12:34:11;35.10;61.20
38784;DHT22;24531;45.502;12.238;2022-08-24T12:39:24;35.20;60.80
38784;DHT22;24531;45.502;12.238;2022-08-24T12:42:00;35.10;61.40
38784;DHT22;24531;45.502;12.238;2022-08-24T12:45:09;35.10;61.90
38784;DHT22;24531;45.502;12.238;2022-08-24T12:47:24;35.10;61.30
38784;DHT22;24531;45.502;12.238;2022-08-24T12:49:56;35.10;61.60
38784;DHT22;24531;45.502;12.238;2022-08-24T13:00:27;34.90;61.20
38784;DHT22;24531;45.502;12.238;2022-08-24T13:02:56;34.90;60.90
38784;DHT22;24531;45.502;12.238;2022-08-24T13:05:23;35.00;61.90
38784;DHT22;24531;45.502;12.238;2022-08-24T13:07:50;35.10;61.80
38784;DHT22;24531;45.502;12.238;2022-08-24T13:12:52;35.30;61.30
38784;DHT22;24531;45.502;12.238;2022-08-24T13:17:44;35.40;60.50
38784;DHT22;24531;45.502;12.238;2022-08-24T13:20:18;35.40;60.20
38784;DHT22;24531;45.502;12.238;2022-08-24T13:22:45;35.30;61.00
38784;DHT22;24531;45.502;12.238;2022-08-24T13:27:46;35.10;60.30
38784;DHT22;24531;45.502;12.238;2022-08-24T13:32:45;35.20;59.90
38784;DHT22;24531;45.502;12.238;2022-08-24T13:40:42;35.20;58.80
38784;DHT22;24531;45.502;12.238;2022-08-24T13:43:11;35.10;59.60
38784;DHT22;24531;45.502;12.238;2022-08-24T13:53:40;34.00;62.60
38784;DHT22;24531;45.502;12.238;2022-08-24T13:56:17;33.90;60.00
38784;DHT22;24531;45.502;12.238;2022-08-24T13:58:51;33.90;60.90
38784;DHT22;24531;45.502;12.238;2022-08-24T14:01:26;33.80;68.60
38784;DHT22;24531;45.502;12.238;2022-08-24T14:04:00;33.70;67.80
38784;DHT22;24531;45.502;12.238;2022-08-24T14:12:11;33.50;63.50
38784;DHT22;24531;45.502;12.238;2022-08-24T14:17:21;33.70;65.70
38784;DHT22;24531;45.502;12.238;2022-08-24T14:20:11;33.70;68.00
38784;DHT22;24531;45.502;12.238;2022-08-24T14:22:40;33.80;67.50
38784;DHT22;24531;45.502;12.238;2022-08-24T14:27:47;33.60;69.60
38784;DHT22;24531;45.502;12.238;2022-08-24T14:32:46;33.50;67.90
38784;DHT22;24531;45.502;12.238;2022-08-24T14:40:36;33.60;65.80
38784;DHT22;24531;45.502;12.238;2022-08-24T14:45:45;33.60;64.40
38784;DHT22;24531;45.502;12.238;2022-08-24T14:50:57;33.60;65.60
38784;DHT22;24531;45.502;12.238;2022-08-24T14:53:28;33.60;67.10
38784;DHT22;24531;45.502;12.238;2022-08-24T14:56:13;33.70;67.30
38784;DHT22;24531;45.502;12.238;2022-08-24T15:04:44;33.60;67.40
38784;DHT22;24531;45.502;12.238;2022-08-24T15:06:47;33.70;65.00
38784;DHT22;24531;45.502;12.238;2022-08-24T15:11:41;33.60;64.40
38784;DHT22;24531;45.502;12.238;2022-08-24T15:14:10;33.60;66.50
38784;DHT22;24531;45.502;12.238;2022-08-24T15:16:49;33.60;65.30
38784;DHT22;24531;45.502;12.238;2022-08-24T15:19:30;33.70;65.20
38784;DHT22;24531;45.502;12.238;2022-08-24T15:24:41;33.60;63.40
38784;DHT22;24531;45.502;12.238;2022-08-24T15:29:51;33.70;64.20
38784;DHT22;24531;45.502;12.238;2022-08-24T15:32:17;34.00;63.90
38784;DHT22;24531;45.502;12.238;2022-08-24T15:37:14;34.10;62.70
38784;DHT22;24531;45.502;12.238;2022-08-24T15:39:40;34.20;62.80
38784;DHT22;24531;45.502;12.238;2022-08-24T15:42:10;34.20;62.70
38784;DHT22;24531;45.502;12.238;2022-08-24T15:44:37;34.30;62.20
38784;DHT22;24531;45.502;12.238;2022-08-24T15:47:19;34.20;62.20
38784;DHT22;24531;45.502;12.238;2022-08-24T15:49:47;34.20;62.00
38784;DHT22;24531;45.502;12.238;2022-08-24T15:55:13;34.00;61.50
38784;DHT22;24531;45.502;12.238;2022-08-24T15:57:40;33.90;62.20
38784;DHT22;24531;45.502;12.238;2022-08-24T16:00:08;33.80;62.60
38784;DHT22;24531;45.502;12.238;2022-08-24T16:02:35;33.70;62.70
38784;DHT22;24531;45.502;12.238;2022-08-24T16:05:15;33.50;62.20
38784;DHT22;24531;45.502;12.238;2022-08-24T16:10:32;33.20;61.90
38784;DHT22;24531;45.502;12.238;2022-08-24T16:13:05;33.00;63.90
38784;DHT22;24531;45.502;12.238;2022-08-24T16:15:31;32.90;64.00
38784;DHT22;24531;45.502;12.238;2022-08-24T16:17:57;32.90;62.00
38784;DHT22;24531;45.502;12.238;2022-08-24T16:22:54;32.70;63.20
38784;DHT22;24531;45.502;12.238;2022-08-24T16:25:23;32.80;63.60
38784;DHT22;24531;45.502;12.238;2022-08-24T16:28:00;32.90;63.50
38784;DHT22;24531;45.502;12.238;2022-08-24T16:33:32;32.80;62.70
38784;DHT22;24531;45.502;12.238;2022-08-24T16:35:59;32.70;63.00
38784;DHT22;24531;45.502;12.238;2022-08-24T16:38:25;32.60;63.50
38784;DHT22;24531;45.502;12.238;2022-08-24T16:40:51;32.70;64.10
38784;DHT22;24531;45.502;12.238;2022-08-24T16:43:16;32.80;63.50
38784;DHT22;24531;45.502;12.238;2022-08-24T16:45:42;32.80;64.00
38784;DHT22;24531;45.502;12.238;2022-08-24T16:48:07;32.70;62.80
38784;DHT22;24531;45.502;12.238;2022-08-24T16:50:33;32.60;63.40
38784;DHT22;24531;45.502;12.238;2022-08-24T16:52:58;32.50;63.40
38784;DHT22;24531;45.502;12.238;2022-08-24T16:55:24;32.50;63.00
38784;DHT22;24531;45.502;12.238;2022-08-24T16:57:53;32.40;63.60
38784;DHT22;24531;45.502;12.238;2022-08-24T17:00:19;32.40;65.10
38784;DHT22;24531;45.502;12.238;2022-08-24T17:02:46;32.30;63.60
38784;DHT22;24531;45.502;12.238;2022-08-24T17:05:13;32.20;63.20
38784;DHT22;24531;45.502;12.238;2022-08-24T17:07:38;32.20;63.60
38784;DHT22;24531;45.502;12.238;2022-08-24T17:10:04;32.10;62.40
38784;DHT22;24531;45.502;12.238;2022-08-24T17:12:31;31.90;63.30
38784;DHT22;24531;45.502;12.238;2022-08-24T17:15:00;31.90;63.30
38784;DHT22;24531;45.502;12.238;2022-08-24T17:17:26;31.90;63.20
38784;DHT22;24531;45.502;12.238;2022-08-24T17:19:53;31.90;63.30
38784;DHT22;24531;45.502;12.238;2022-08-24T17:22:20;31.80;63.10
38784;DHT22;24531;45.502;12.238;2022-08-24T17:24:46;31.90;63.90
38784;DHT22;24531;45.502;12.238;2022-08-24T17:27:11;31.90;64.40
38784;DHT22;24531;45.502;12.238;2022-08-24T17:29:37;32.00;64.60
38784;DHT22;24531;45.502;12.238;2022-08-24T17:32:03;32.20;64.90
38784;DHT22;24531;45.502;12.238;2022-08-24T17:34:29;32.20;65.00
38784;DHT22;24531;45.502;12.238;2022-08-24T17:36:56;32.20;65.10
38784;DHT22;24531;45.502;12.238;2022-08-24T17:39:22;32.20;65.10
38784;DHT22;24531;45.502;12.238;2022-08-24T17:41:51;32.20;65.50
38784;DHT22;24531;45.502;12.238;2022-08-24T17:44:20;32.20;65.90
38784;DHT22;24531;45.502;12.238;2022-08-24T17:46:49;32.20;66.00
38784;DHT22;24531;45.502;12.238;2022-08-24T17:49:15;32.20;66.10
38784;DHT22;24531;45.502;12.238;2022-08-24T17:51:42;32.10;66.30
38784;DHT22;24531;45.502;12.238;2022-08-24T17:54:08;32.10;66.60
38784;DHT22;24531;45.502;12.238;2022-08-24T17:56:33;32.10;66.90
38784;DHT22;24531;45.502;12.238;2022-08-24T17:59:08;32.10;66.90
38784;DHT22;24531;45.502;12.238;2022-08-24T18:01:53;32.10;67.10
38784;DHT22;24531;45.502;12.238;2022-08-24T18:04:19;32.10;67.20
38784;DHT22;24531;45.502;12.238;2022-08-24T18:06:45;32.00;67.20
38784;DHT22;24531;45.502;12.238;2022-08-24T18:09:18;32.00;67.40
38784;DHT22;24531;45.502;12.238;2022-08-24T18:11:46;32.00;67.50
38784;DHT22;24531;45.502;12.238;2022-08-24T18:14:12;31.90;67.50
38784;DHT22;24531;45.502;12.238;2022-08-24T18:16:37;31.80;67.00
38784;DHT22;24531;45.502;12.238;2022-08-24T18:19:03;31.60;67.10
38784;DHT22;24531;45.502;12.238;2022-08-24T18:21:29;31.50;68.00
38784;DHT22;24531;45.502;12.238;2022-08-24T18:23:55;31.50;68.30
38784;DHT22;24531;45.502;12.238;2022-08-24T18:26:21;31.60;68.50
38784;DHT22;24531;45.502;12.238;2022-08-24T18:28:48;31.60;68.60
38784;DHT22;24531;45.502;12.238;2022-08-24T18:31:13;31.60;68.60
38784;DHT22;24531;45.502;12.238;2022-08-24T18:33:39;31.60;68.70
38784;DHT22;24531;45.502;12.238;2022-08-24T18:36:05;31.60;68.70
38784;DHT22;24531;45.502;12.238;2022-08-24T18:38:31;31.60;68.80
38784;DHT22;24531;45.502;12.238;2022-08-24T18:41:00;31.60;68.50
38784;DHT22;24531;45.502;12.238;2022-08-24T18:43:28;31.30;68.40
38784;DHT22;24531;45.502;12.238;2022-08-24T18:45:53;31.20;68.30